Sao Paulo, Brazil
Current Conditions -  °F | °C
As of 1:00 PM on Friday 19 Dec 2014 (Local Time) from SBMT Reporting Station
Broken Clouds Broken Clouds  
Wind Chill: 29°   Ceiling: 4000
Heat Index: 30°   Visibility: 6mi
Dew Point: 19°   Wind: 6mph
Humidity: 55%   Direction: 230°SW
Pressure: 29.88"   Gusts: NA
Location:  23.53°S, 46.63°W
Report Text: SBMT 191500Z 23005KT 9999 BKN040 29/19 Q1012
Loading
Personal Weather Stations






























Interactive Weather Map New forecast layout! Learn more

10-Day Weather Forecast

Advertisements
Track Severe Weather on mobile